Airfield :
LOGIN :

Register | Disclaimer

   EN    FR    IT 

 










Legend :    VFR   Marginal VFR   IFR   Intensive IFR   Very Intensive IFR
Visi :
Ceiling :
>= 8 km
>= 3000ft
5 to 8 km
1000 to 3000 ft
1500m to 5 km
500 to 1000 ft
800 to 1500m
200 to 500 ft
< 800m
< 200 ft
Symbols :   Thunderstorms  Fog  Heavy snow  Heavy precipitations  Wind > 20 kt
SIGMETs :     Misc.  Thunderstorms  Icing  Turbulence  Mountain Waves  Volcanic Ashes






- Airport Elevation : 122 ft
- IATA code : TXL


EDDT - Berlin Tegel Int.

CURRENT METAR :
  • 250020Z 22010KT 9999 FEW011 SCT020 BKN038 08/07 Q0999

EXPIRED METARs :
  • 242350Z 23011KT 9999 -RA BKN019 08/07 Q0999
  • 242320Z 23012KT 9999 -RA FEW009 BKN019 08/07 Q0999
  • 242250Z 22010KT 7000 -RA BKN011 BKN019 07/06 Q0999
  • 242220Z 22009KT 9999 -RADZ BKN008 BKN021 06/06 Q1000
  • 242150Z 21010KT 9999 -RADZ BKN008 06/05 Q1000 NOSIG

TAF TAF EDDT
Valid from the 25 at 00:00 until the 26 at 00:00 UTC


242300Z 2500/2524 22014KT 9999 BKN020
BECMG 2500/2502 24020G30KT
TEMPO 2500/2504 3500 -RA BKN012
BECMG 2518/2520 23012KT



MET'MAP, your aeronautical weather chart ! - Copyright ORBIFLY December 2007 - Disclaimer

ORBIFLY MET'MAP TEAM :

Programming & Development : Alexandra Zaïnal
Concept & original design : Baudouin d'Aumeries
Assistance for programming : Marc-Olivier Méhu
Technical & hardware support : Manuel Goepfert

Contact : metmap@orbifly.com




SOURCES & CREDITS :

   NOAA